Time;durP1;ratioP1;P1;durP2;ratioP2;P2;SDS_P1;SDS_P2;PMS_P1;PMS_P2;Temp;Humidity;BMP_temperature;BMP_pressure;BME280_temperature;BME280_humidity;BME280_pressure;Samples;Min_cycle;Max_cycle;Signal;HPM_P1;HPM_P2
2021/11/21 00:01:37;;;;;;;8.75;2.37;;;;;;;16.48;40.86;100889.69;4434131;32;20406;-70
2021/11/21 00:04:02;;;;;;;13.05;1.90;;;;;;;16.66;40.69;100895.31;4438763;32;20018;-70
2021/11/21 00:06:28;;;;;;;11.95;2.22;;;;;;;16.54;40.83;100884.16;4433589;32;20063;-70
2021/11/21 00:08:54;;;;;;;11.93;2.22;;;;;;;16.65;40.54;100885.22;4434614;32;20026;-69
2021/11/21 00:11:20;;;;;;;12.32;2.90;;;;;;;16.35;40.94;100886.19;4435091;32;20398;-69
2021/11/21 00:13:48;;;;;;;11.70;2.50;;;;;;;16.58;40.68;100890.44;4425944;32;20029;-71
2021/11/21 00:16:14;;;;;;;11.15;2.20;;;;;;;16.58;40.56;100894.09;4424068;32;20458;-71
2021/11/21 00:18:40;;;;;;;13.23;2.10;;;;;;;16.51;40.51;100891.56;4426303;32;20029;-71
2021/11/21 00:21:06;;;;;;;8.30;2.40;;;;;;;16.57;40.30;100891.72;4427278;32;20400;-71
2021/11/21 00:23:33;;;;;;;13.60;2.42;;;;;;;16.48;40.57;100898.22;4424915;32;20422;-71
2021/11/21 00:25:59;;;;;;;11.05;2.47;;;;;;;16.48;40.09;100895.38;4427556;32;20042;-71
2021/11/21 00:28:25;;;;;;;12.25;2.08;;;;;;;16.32;40.80;100889.97;4423226;32;20470;-71
2021/11/21 00:30:51;;;;;;;10.35;1.67;;;;;;;16.33;40.58;100904.97;4424096;32;20087;-71
2021/11/21 00:33:17;;;;;;;13.57;1.58;;;;;;;15.96;41.33;100899.28;4425987;32;20122;-71
2021/11/21 00:35:43;;;;;;;12.02;1.65;;;;;;;16.25;40.75;100895.19;4425413;32;20648;-71
2021/11/21 00:38:09;;;;;;;10.23;1.85;;;;;;;16.12;40.99;100897.41;4423972;32;20078;-71
2021/11/21 00:40:35;;;;;;;8.25;1.33;;;;;;;16.22;40.77;100896.12;4419997;32;20085;-71
2021/11/21 00:43:01;;;;;;;7.68;1.70;;;;;;;16.20;40.84;100893.00;4420026;32;20084;-71
2021/11/21 00:45:28;;;;;;;9.73;1.20;;;;;;;15.97;41.05;100891.56;4425295;32;20082;-71
2021/11/21 00:47:55;;;;;;;13.20;1.60;;;;;;;16.07;41.14;100895.97;4425974;32;20030;-71
2021/11/21 00:50:26;;;;;;;5.15;1.35;;;;;;;16.09;40.68;100887.78;4426070;32;20104;-71
2021/11/21 00:52:59;;;;;;;7.47;1.30;;;;;;;16.25;40.77;100887.47;4426703;32;20298;-71
2021/11/21 00:55:34;;;;;;;12.07;2.12;;;;;;;15.96;41.25;100882.25;4425563;32;20487;-71
2021/11/21 00:58:03;;;;;;;10.18;1.25;;;;;;;15.86;41.17;100885.53;4423997;32;20074;-71
2021/11/21 01:00:29;;;;;;;8.40;1.00;;;;;;;15.84;41.38;100879.56;4421766;32;20029;-71
2021/11/21 01:02:55;;;;;;;8.23;1.27;;;;;;;15.68;41.49;100889.16;4427135;32;20033;-71
2021/11/21 01:05:21;;;;;;;8.05;1.10;;;;;;;15.51;41.66;100884.22;4427232;32;20092;-71
2021/11/21 01:07:47;;;;;;;5.87;0.90;;;;;;;15.70;41.47;100885.84;4426052;32;20471;-71
2021/11/21 01:10:20;;;;;;;12.00;1.42;;;;;;;15.54;41.36;100888.97;4427389;32;20061;-71
2021/11/21 01:12:47;;;;;;;8.93;1.23;;;;;;;16.19;40.39;100897.06;4425935;32;20411;-71
2021/11/21 01:15:18;;;;;;;10.88;1.10;;;;;;;15.48;41.37;100885.16;4423652;32;20111;-71
2021/11/21 01:17:45;;;;;;;7.60;1.33;;;;;;;15.98;40.67;100896.75;4427919;32;20094;-71
2021/11/21 01:20:15;;;;;;;8.13;1.40;;;;;;;15.98;40.42;100898.81;4425549;32;20072;-71
2021/11/21 01:22:41;;;;;;;9.05;1.00;;;;;;;15.67;40.96;100898.94;4421831;32;20084;-71
2021/11/21 01:25:10;;;;;;;8.85;0.98;;;;;;;15.73;40.77;100893.41;4423968;32;20454;-71
2021/11/21 01:27:36;;;;;;;11.15;0.90;;;;;;;15.82;40.90;100896.28;4423715;32;20427;-71
2021/11/21 01:30:04;;;;;;;5.82;1.02;;;;;;;15.51;40.79;100899.22;4421587;32;20085;-71
2021/11/21 01:32:30;;;;;;;9.95;1.08;;;;;;;15.83;40.24;100900.69;4426684;32;20119;-71
2021/11/21 01:34:56;;;;;;;7.25;1.40;;;;;;;15.69;40.21;100904.94;4426305;32;20074;-71
2021/11/21 01:37:21;;;;;;;8.25;1.12;;;;;;;15.67;40.40;100909.47;4424118;32;20089;-71
2021/11/21 01:39:47;;;;;;;19.05;1.52;;;;;;;15.61;40.55;100908.53;4424285;32;20187;-71
2021/11/21 01:42:13;;;;;;;6.75;1.20;;;;;;;15.54;40.58;100915.28;4421690;32;20077;-71
2021/11/21 01:44:40;;;;;;;5.43;1.27;;;;;;;15.68;40.28;100923.19;4426203;32;20080;-71
2021/11/21 01:47:07;;;;;;;6.57;1.30;;;;;;;15.61;40.41;100923.50;4419784;32;20423;-71
2021/11/21 01:49:34;;;;;;;12.00;1.45;;;;;;;15.53;40.31;100927.88;4424476;32;20324;-71
2021/11/21 01:52:01;;;;;;;5.82;1.17;;;;;;;15.59;40.10;100926.00;4422774;32;20140;-71
2021/11/21 01:54:26;;;;;;;6.80;0.80;;;;;;;15.39;40.15;100924.84;4424098;32;20119;-71
2021/11/21 01:56:53;;;;;;;6.43;1.08;;;;;;;15.18;40.61;100923.62;4424666;32;20380;-71
2021/11/21 01:59:19;;;;;;;5.40;1.15;;;;;;;15.43;40.05;100923.44;4421224;32;20052;-71
2021/11/21 02:01:46;;;;;;;6.57;0.93;;;;;;;15.50;40.02;100917.47;4424656;32;20370;-71
2021/11/21 02:04:12;;;;;;;7.32;1.10;;;;;;;15.50;40.21;100922.38;4422861;32;20841;-71
2021/11/21 02:06:38;;;;;;;9.07;1.10;;;;;;;15.53;40.07;100912.94;4423856;32;20125;-71
2021/11/21 02:09:05;;;;;;;8.45;1.12;;;;;;;14.97;40.89;100903.84;4424930;32;20030;-71
2021/11/21 02:11:31;;;;;;;7.93;1.70;;;;;;;15.14;40.78;100916.53;4423994;32;20069;-71
2021/11/21 02:13:57;;;;;;;2.90;0.93;;;;;;;15.16;40.55;100917.63;4423880;32;20087;-71
2021/11/21 02:16:25;;;;;;;8.52;1.25;;;;;;;15.19;40.46;100925.19;4422517;32;20116;-71
2021/11/21 02:18:51;;;;;;;8.68;0.88;;;;;;;15.14;40.58;100930.69;4422252;32;20115;-71
2021/11/21 02:21:19;;;;;;;7.50;0.90;;;;;;;15.14;40.24;100927.84;4427472;32;20033;-71
2021/11/21 02:23:47;;;;;;;5.85;0.90;;;;;;;15.16;40.53;100925.34;4424349;32;20106;-71
2021/11/21 02:26:15;;;;;;;8.73;1.15;;;;;;;15.16;40.03;100931.03;4425432;32;20187;-71
2021/11/21 02:28:41;;;;;;;4.97;1.20;;;;;;;15.09;40.17;100932.09;4420857;32;20018;-71
2021/11/21 02:31:08;;;;;;;7.35;0.85;;;;;;;15.12;40.18;100939.66;4420374;32;20453;-71
2021/11/21 02:33:34;;;;;;;8.30;0.90;;;;;;;14.83;40.65;100947.69;4427622;32;20037;-71
2021/11/21 02:36:03;;;;;;;5.95;0.80;;;;;;;14.86;40.18;100943.13;4427646;32;20072;-71
2021/11/21 02:38:31;;;;;;;8.70;0.85;;;;;;;15.19;39.71;100936.53;4421927;32;20060;-71
2021/11/21 02:40:59;;;;;;;8.13;1.27;;;;;;;15.00;39.84;100936.94;4423275;32;20017;-71
2021/11/21 02:43:25;;;;;;;5.90;0.85;;;;;;;14.78;40.10;100941.81;4425079;32;20722;-71
2021/11/21 02:45:53;;;;;;;5.10;0.60;;;;;;;14.93;39.93;100940.03;4424776;32;20525;-70
2021/11/21 02:48:21;;;;;;;12.32;1.23;;;;;;;15.09;39.74;100934.12;4424933;32;20022;-70
2021/11/21 02:50:49;;;;;;;10.52;1.50;;;;;;;15.06;39.67;100926.56;4422501;32;20037;-71
2021/11/21 02:53:17;;;;;;;6.87;0.75;;;;;;;14.90;39.64;100935.28;4423229;32;20096;-71
2021/11/21 02:55:44;;;;;;;6.97;1.20;;;;;;;14.93;39.64;100940.03;4423243;32;20042;-71
2021/11/21 02:58:10;;;;;;;7.43;0.77;;;;;;;14.87;39.45;100936.22;4424188;32;20066;-71
2021/11/21 03:00:37;;;;;;;5.78;1.02;;;;;;;14.82;39.45;100934.75;4423418;32;20120;-71
2021/11/21 03:03:03;;;;;;;7.45;0.82;;;;;;;14.78;39.57;100934.12;4422717;32;20176;-70
2021/11/21 03:05:33;;;;;;;5.03;0.73;;;;;;;14.76;39.43;100936.62;4424939;32;20026;-69
2021/11/21 03:07:58;;;;;;;7.10;1.10;;;;;;;15.06;38.92;100944.34;4420635;32;20124;-69
2021/11/21 03:10:25;;;;;;;5.68;1.12;;;;;;;14.88;38.96;100943.47;4424851;32;20034;-69
2021/11/21 03:12:54;;;;;;;5.90;1.20;;;;;;;14.73;39.45;100948.87;4421938;32;20048;-69
2021/11/21 03:15:22;;;;;;;8.23;1.02;;;;;;;15.05;38.95;100951.28;4423515;32;20069;-69
2021/11/21 03:17:48;;;;;;;12.48;1.17;;;;;;;14.81;39.17;100943.72;4424829;32;20105;-69
2021/11/21 03:20:20;;;;;;;7.22;1.77;;;;;;;14.97;39.13;100955.63;4421650;32;20125;-69
2021/11/21 03:22:47;;;;;;;6.60;1.48;;;;;;;15.03;38.83;100950.19;4426342;32;20154;-70
2021/11/21 03:25:13;;;;;;;3.67;1.05;;;;;;;14.93;39.00;100951.34;4425282;32;20061;-69
2021/11/21 03:27:39;;;;;;;8.10;0.95;;;;;;;14.86;39.23;100957.31;4424404;32;20459;-69
2021/11/21 03:30:09;;;;;;;9.55;1.73;;;;;;;14.99;38.84;100958.00;4421783;32;20041;-69
2021/11/21 03:32:34;;;;;;;6.32;0.80;;;;;;;14.85;39.04;100956.50;4422198;32;20100;-69
2021/11/21 03:35:00;;;;;;;11.43;1.12;;;;;;;14.67;39.25;100950.72;4424708;32;20018;-69
2021/11/21 03:37:26;;;;;;;7.60;1.37;;;;;;;14.73;39.02;100959.44;4426038;32;20066;-69
2021/11/21 03:39:52;;;;;;;6.20;1.08;;;;;;;14.70;39.04;100960.34;4422734;32;20101;-69
2021/11/21 03:42:18;;;;;;;9.80;1.30;;;;;;;14.69;39.01;100961.59;4419506;32;20129;-69
2021/11/21 03:44:44;;;;;;;6.50;1.02;;;;;;;14.82;38.86;100970.81;4427126;32;20064;-69
2021/11/21 03:47:10;;;;;;;9.40;0.95;;;;;;;14.84;38.83;100960.59;4419312;32;20038;-69
2021/11/21 03:49:36;;;;;;;7.93;0.90;;;;;;;14.65;38.77;100955.28;4420778;32;20077;-69
2021/11/21 03:52:03;;;;;;;15.95;1.37;;;;;;;14.72;38.76;100960.66;4427482;32;20069;-69
2021/11/21 03:54:28;;;;;;;6.75;1.08;;;;;;;14.62;38.87;100959.81;4427874;32;20111;-69
2021/11/21 03:56:54;;;;;;;5.93;0.80;;;;;;;14.46;39.31;100957.19;4427668;32;20385;-69
2021/11/21 03:59:20;;;;;;;10.60;1.52;;;;;;;14.56;39.17;100961.66;4420603;32;20478;-69
2021/11/21 04:01:47;;;;;;;6.40;0.90;;;;;;;14.42;39.52;100978.38;4423409;32;20069;-69
2021/11/21 04:04:13;;;;;;;10.55;0.75;;;;;;;14.61;39.43;100965.94;4429083;32;20096;-69
2021/11/21 04:06:39;;;;;;;9.98;1.17;;;;;;;14.12;40.01;100959.22;4422683;32;20356;-69
2021/11/21 04:09:06;;;;;;;4.37;0.85;;;;;;;14.45;39.61;100955.59;4428806;32;20096;-69
2021/11/21 04:11:32;;;;;;;4.00;1.23;;;;;;;14.34;39.74;100960.06;4426724;32;20148;-69
2021/11/21 04:13:59;;;;;;;10.60;1.27;;;;;;;14.59;39.47;100957.12;4426905;32;20204;-69
2021/11/21 04:16:26;;;;;;;4.50;0.90;;;;;;;14.61;39.56;100958.25;4427607;32;20042;-69
2021/11/21 04:18:52;;;;;;;4.62;1.00;;;;;;;14.28;39.94;100970.38;4424647;32;20170;-69
2021/11/21 04:21:18;;;;;;;6.32;1.50;;;;;;;14.35;39.76;100972.97;4425832;32;20098;-69
2021/11/21 04:23:44;;;;;;;5.45;0.88;;;;;;;14.31;39.98;100966.66;4429635;32;20057;-69
2021/11/21 04:26:10;;;;;;;5.47;0.75;;;;;;;14.47;39.64;100972.13;4426889;32;20034;-69
2021/11/21 04:28:36;;;;;;;8.15;0.88;;;;;;;14.40;39.63;100969.56;4427374;32;20064;-69
2021/11/21 04:31:03;;;;;;;11.52;1.55;;;;;;;14.26;39.95;100973.69;4425923;32;20144;-69
2021/11/21 04:33:29;;;;;;;10.50;1.23;;;;;;;14.46;39.68;100967.72;4427821;32;20026;-69
2021/11/21 04:35:55;;;;;;;8.65;1.25;;;;;;;14.23;40.06;100976.63;4425717;32;20145;-69
2021/11/21 04:38:23;;;;;;;11.10;1.02;;;;;;;14.35;39.81;100990.75;4425556;32;20357;-69
2021/11/21 04:40:51;;;;;;;8.32;0.90;;;;;;;14.45;39.78;100981.06;4419216;32;20395;-71
2021/11/21 04:43:19;;;;;;;7.32;0.93;;;;;;;14.38;39.96;100989.84;4425245;32;20427;-71
2021/11/21 04:45:44;;;;;;;5.07;0.82;;;;;;;14.38;39.97;100991.84;4426056;32;20411;-71
2021/11/21 04:48:10;;;;;;;6.18;0.98;;;;;;;14.07;40.26;100998.16;4425628;32;20185;-71
2021/11/21 04:50:36;;;;;;;14.52;0.95;;;;;;;14.30;40.06;100993.37;4425624;32;20037;-71
2021/11/21 04:53:03;;;;;;;4.10;0.52;;;;;;;14.37;39.90;100988.25;4428175;32;20079;-71
2021/11/21 04:55:29;;;;;;;5.35;0.70;;;;;;;14.28;40.17;100990.19;4428564;32;20045;-71
2021/11/21 04:57:55;;;;;;;7.95;0.95;;;;;;;14.14;40.27;100991.47;4422794;32;20161;-70
2021/11/21 05:00:21;;;;;;;5.18;0.70;;;;;;;14.04;40.40;100987.75;4425842;32;20089;-70
2021/11/21 05:02:49;;;;;;;5.78;0.73;;;;;;;14.38;39.88;100987.00;4425711;32;20046;-70
2021/11/21 05:05:19;;;;;;;10.85;0.80;;;;;;;14.19;40.42;100988.06;4421971;32;20089;-70
2021/11/21 05:07:45;;;;;;;6.32;1.05;;;;;;;14.50;39.95;100985.34;4426240;32;20084;-70
2021/11/21 05:10:12;;;;;;;3.70;0.60;;;;;;;14.33;40.08;100995.28;4425150;32;20064;-71
2021/11/21 05:12:39;;;;;;;5.75;0.50;;;;;;;14.06;40.35;100990.91;4416423;32;20087;-71
2021/11/21 05:15:07;;;;;;;3.80;0.80;;;;;;;14.37;39.95;100999.59;4428528;32;20092;-70
2021/11/21 05:17:33;;;;;;;6.37;0.60;;;;;;;14.48;39.88;100983.00;4425248;32;20088;-70
2021/11/21 05:20:00;;;;;;;6.47;0.60;;;;;;;14.16;40.11;100985.34;4424796;32;20432;-71
2021/11/21 05:22:27;;;;;;;4.50;0.77;;;;;;;14.04;40.35;100984.12;4417819;32;20033;-71
2021/11/21 05:24:53;;;;;;;5.85;0.75;;;;;;;14.12;40.33;100999.63;4428141;32;20085;-71
2021/11/21 05:27:21;;;;;;;2.70;0.47;;;;;;;14.04;40.59;100993.41;4423007;32;20049;-71
2021/11/21 05:29:47;;;;;;;8.05;0.80;;;;;;;14.34;40.20;101006.16;4423395;32;20491;-71
2021/11/21 05:32:12;;;;;;;4.40;0.80;;;;;;;14.56;39.60;101009.81;4425527;32;20096;-71
2021/11/21 05:34:38;;;;;;;5.15;1.00;;;;;;;14.83;39.17;101006.41;4423576;32;20088;-71
2021/11/21 05:37:04;;;;;;;5.68;0.90;;;;;;;14.92;39.04;101006.47;4426711;32;20478;-70
2021/11/21 05:39:31;;;;;;;9.45;1.27;;;;;;;15.02;38.60;101000.41;4419303;32;20056;-70
2021/11/21 05:41:57;;;;;;;6.72;0.85;;;;;;;15.32;38.28;101005.31;4422158;32;20085;-70
2021/11/21 05:44:23;;;;;;;7.50;0.75;;;;;;;14.65;38.88;101004.22;4426014;32;20034;-71
2021/11/21 05:46:49;;;;;;;5.62;0.93;;;;;;;15.25;38.22;101008.41;4424130;32;20107;-71
2021/11/21 05:49:15;;;;;;;3.70;0.70;;;;;;;15.29;38.13;101005.44;4424467;32;20030;-71
2021/11/21 05:51:41;;;;;;;6.22;0.70;;;;;;;15.13;38.26;101005.66;4424068;32;20067;-71
2021/11/21 05:54:07;;;;;;;10.43;0.80;;;;;;;15.35;38.01;101003.56;4425988;32;20070;-71
2021/11/21 05:56:33;;;;;;;6.65;0.65;;;;;;;15.54;37.84;101008.91;4421530;32;20091;-71
2021/11/21 05:58:59;;;;;;;3.37;0.60;;;;;;;15.29;38.20;101006.22;4425516;32;20632;-71
2021/11/21 06:01:25;;;;;;;5.85;0.68;;;;;;;15.66;37.62;101007.22;4421210;32;20197;-71
2021/11/21 06:03:51;;;;;;;6.47;0.90;;;;;;;15.49;37.73;101003.03;4428139;32;20077;-71
2021/11/21 06:06:18;;;;;;;3.42;0.50;;;;;;;15.60;37.74;101012.72;4424930;32;20047;-71
2021/11/21 06:08:44;;;;;;;4.28;0.45;;;;;;;15.59;37.69;101013.94;4422856;32;20453;-71
2021/11/21 06:11:10;;;;;;;5.00;0.52;;;;;;;15.41;37.78;101018.75;4421660;32;20053;-71
2021/11/21 06:13:36;;;;;;;6.78;0.82;;;;;;;15.66;37.53;101010.84;4419270;32;20491;-71
2021/11/21 06:16:02;;;;;;;4.87;0.50;;;;;;;15.72;37.35;101020.34;4427874;32;20140;-71
2021/11/21 06:18:27;;;;;;;5.75;0.43;;;;;;;15.38;38.00;101023.34;4424442;32;20075;-71
2021/11/21 06:20:53;;;;;;;6.50;0.85;;;;;;;15.15;38.07;101022.97;4423112;32;20026;-71
2021/11/21 06:23:19;;;;;;;5.62;0.70;;;;;;;15.23;38.29;101030.78;4422604;32;20041;-71
2021/11/21 06:25:45;;;;;;;3.85;0.50;;;;;;;15.46;37.72;101044.47;4426162;32;20375;-71
2021/11/21 06:28:12;;;;;;;3.80;0.65;;;;;;;15.55;37.63;101035.22;4422246;32;20151;-71
2021/11/21 06:30:38;;;;;;;2.92;0.75;;;;;;;15.81;37.44;101039.44;4423311;32;20057;-71
2021/11/21 06:33:04;;;;;;;4.00;0.45;;;;;;;15.90;37.22;101045.16;4427126;32;20321;-71
2021/11/21 06:35:31;;;;;;;5.57;0.50;;;;;;;15.75;37.34;101041.31;4424318;32;20029;-71
2021/11/21 06:37:58;;;;;;;3.28;0.50;;;;;;;15.82;37.16;101049.50;4423817;32;20042;-71
2021/11/21 06:40:24;;;;;;;7.40;0.62;;;;;;;16.06;36.85;101044.88;4423975;32;20025;-71
2021/11/21 06:42:50;;;;;;;4.75;0.68;;;;;;;16.07;36.68;101051.34;4424615;32;20052;-71
2021/11/21 06:45:16;;;;;;;3.65;0.60;;;;;;;16.12;36.56;101050.72;4424361;32;20089;-71
2021/11/21 06:47:42;;;;;;;5.60;0.60;;;;;;;16.03;36.74;101040.13;4424163;32;20133;-71
2021/11/21 06:50:12;;;;;;;2.20;0.40;;;;;;;15.66;37.29;101050.56;4420817;32;20045;-71
2021/11/21 06:52:38;;;;;;;1.33;0.52;;;;;;;15.95;36.98;101055.88;4426193;32;20374;-71
2021/11/21 06:55:06;;;;;;;9.93;0.73;;;;;;;15.40;37.82;101054.84;4421511;32;20021;-70
2021/11/21 06:57:33;;;;;;;3.92;0.37;;;;;;;15.94;37.15;101059.97;4423673;32;20030;-70
2021/11/21 07:00:00;;;;;;;4.28;0.40;;;;;;;15.70;37.47;101058.91;4423628;32;20107;-71
2021/11/21 07:02:26;;;;;;;1.33;0.50;;;;;;;15.58;37.67;101059.81;4423985;32;20029;-71
2021/11/21 07:04:52;;;;;;;6.47;0.68;;;;;;;15.57;37.66;101061.06;4421685;32;20064;-70
2021/11/21 07:07:18;;;;;;;5.97;0.70;;;;;;;15.34;37.81;101056.66;4421298;32;20478;-70
2021/11/21 07:09:44;;;;;;;4.72;0.50;;;;;;;14.50;39.62;101064.66;4424343;32;20429;-70
2021/11/21 07:12:12;;;;;;;3.05;0.50;;;;;;;14.75;38.88;101067.41;4423128;32;20838;-70
2021/11/21 07:14:38;;;;;;;3.45;0.57;;;;;;;15.02;38.80;101078.97;4424055;32;20132;-70
2021/11/21 07:17:04;;;;;;;5.70;0.70;;;;;;;14.83;39.02;101065.91;4425068;32;20453;-70
2021/11/21 07:19:30;;;;;;;8.20;0.50;;;;;;;14.95;38.88;101065.06;4420604;32;20030;-70
2021/11/21 07:21:56;;;;;;;4.47;0.60;;;;;;;14.90;38.99;101077.78;4425240;32;20368;-70
2021/11/21 07:24:23;;;;;;;4.28;0.62;;;;;;;14.45;39.64;101079.41;4426914;32;20092;-70
2021/11/21 07:26:49;;;;;;;4.47;0.90;;;;;;;14.66;39.35;101085.13;4426287;32;20060;-70
2021/11/21 07:29:15;;;;;;;4.62;0.90;;;;;;;14.54;39.65;101085.16;4425884;32;20405;-70
2021/11/21 07:31:41;;;;;;;3.05;0.55;;;;;;;14.59;39.69;101081.72;4424498;32;20100;-70
2021/11/21 07:34:08;;;;;;;3.45;0.50;;;;;;;14.31;40.04;101086.34;4425348;32;20080;-70
2021/11/21 07:36:33;;;;;;;5.95;0.80;;;;;;;14.32;40.11;101089.94;4425791;32;20073;-70
2021/11/21 07:38:59;;;;;;;5.87;0.47;;;;;;;14.37;39.90;101086.56;4421436;32;20128;-70
2021/11/21 07:41:26;;;;;;;4.05;0.40;;;;;;;14.18;40.28;101094.03;4427381;32;20226;-70
2021/11/21 07:43:52;;;;;;;5.28;0.57;;;;;;;14.26;40.05;101103.12;4427837;32;20025;-70
2021/11/21 07:46:18;;;;;;;6.25;0.60;;;;;;;13.99;40.49;101112.84;4426896;32;20109;-70
2021/11/21 07:48:44;;;;;;;5.68;0.60;;;;;;;14.16;40.43;101116.34;4425503;32;20449;-70
2021/11/21 07:51:10;;;;;;;8.35;0.60;;;;;;;14.08;40.40;101129.13;4424238;32;20116;-70
2021/11/21 07:53:35;;;;;;;4.07;0.55;;;;;;;14.00;40.75;101120.06;4420593;32;20059;-70
2021/11/21 07:56:01;;;;;;;4.07;0.40;;;;;;;13.52;41.49;101122.41;4425569;32;20989;-70
2021/11/21 07:58:28;;;;;;;5.87;0.73;;;;;;;13.79;41.09;101128.44;4426038;32;20057;-70
2021/11/21 08:00:54;;;;;;;1.90;0.70;;;;;;;14.11;40.50;101133.09;4423662;32;20026;-70
2021/11/21 08:03:20;;;;;;;5.30;0.75;;;;;;;14.14;40.27;101141.47;4423902;32;20091;-70
2021/11/21 08:05:46;;;;;;;5.12;0.45;;;;;;;14.03;40.43;101138.19;4425707;32;20076;-70
2021/11/21 08:08:12;;;;;;;7.68;0.60;;;;;;;14.10;40.34;101146.47;4423393;32;20073;-70
2021/11/21 08:10:38;;;;;;;4.47;0.62;;;;;;;14.08;40.37;101148.94;4425564;32;20042;-70
2021/11/21 08:13:04;;;;;;;3.40;1.00;;;;;;;14.13;40.23;101148.38;4428082;32;20073;-70
2021/11/21 08:15:29;;;;;;;5.03;0.52;;;;;;;14.06;40.35;101157.09;4424781;32;20058;-70
2021/11/21 08:17:55;;;;;;;3.37;0.52;;;;;;;13.90;40.52;101158.00;4424720;32;20495;-70
2021/11/21 08:20:22;;;;;;;9.00;0.70;;;;;;;14.22;39.97;101165.47;4426838;32;20070;-70
2021/11/21 08:22:47;;;;;;;3.00;0.57;;;;;;;13.72;40.89;101163.38;4425307;32;20068;-70
2021/11/21 08:25:13;;;;;;;6.53;0.55;;;;;;;14.02;40.17;101156.41;4426289;32;20061;-70
2021/11/21 08:27:39;;;;;;;6.75;0.73;;;;;;;14.28;39.73;101160.88;4426559;32;20029;-70
2021/11/21 08:30:07;;;;;;;4.00;0.70;;;;;;;14.31;39.49;101157.12;4427421;32;20344;-70
2021/11/21 08:32:32;;;;;;;5.90;0.40;;;;;;;14.50;39.44;101158.91;4426542;32;20485;-70
2021/11/21 08:34:58;;;;;;;6.47;0.68;;;;;;;14.44;39.21;101152.25;4428089;32;20045;-70
2021/11/21 08:37:24;;;;;;;3.83;0.40;;;;;;;14.48;39.19;101158.56;4426307;32;20034;-70
2021/11/21 08:39:50;;;;;;;5.87;0.60;;;;;;;14.58;39.08;101163.09;4423224;32;20096;-70
2021/11/21 08:42:16;;;;;;;6.87;0.70;;;;;;;14.09;39.80;101168.28;4425665;32;20066;-70
2021/11/21 08:44:42;;;;;;;5.85;0.57;;;;;;;14.51;38.90;101171.81;4425421;32;20042;-70
2021/11/21 08:47:10;;;;;;;2.90;0.68;;;;;;;14.24;39.35;101160.19;4425992;32;20085;-70
2021/11/21 08:49:37;;;;;;;6.18;0.90;;;;;;;14.47;38.74;101173.19;4424120;32;20664;-70
2021/11/21 08:52:04;;;;;;;5.07;0.57;;;;;;;14.55;39.02;101174.53;4427671;32;20065;-70
2021/11/21 08:54:31;;;;;;;3.97;0.40;;;;;;;14.61;38.87;101184.84;4423076;32;20026;-70
2021/11/21 08:56:56;;;;;;;2.97;0.50;;;;;;;14.82;38.54;101177.66;4423882;32;20056;-70
2021/11/21 08:59:22;;;;;;;9.55;0.40;;;;;;;14.40;39.04;101182.72;4426186;32;20557;-70
2021/11/21 09:01:50;;;;;;;6.70;0.65;;;;;;;14.78;38.47;101194.78;4423936;32;20053;-70
2021/11/21 09:04:17;;;;;;;2.83;0.60;;;;;;;14.87;38.38;101194.88;4423678;32;20038;-70
2021/11/21 09:06:45;;;;;;;4.20;0.68;;;;;;;15.34;37.34;101189.16;4424874;32;20069;-70
2021/11/21 09:09:12;;;;;;;3.80;0.50;;;;;;;15.57;37.10;101192.38;4425817;32;20022;-70
2021/11/21 09:11:38;;;;;;;8.13;0.60;;;;;;;15.85;36.49;101199.81;4426501;32;20447;-70
2021/11/21 09:14:06;;;;;;;4.65;0.70;;;;;;;15.54;36.42;101203.84;4421890;32;20022;-70
2021/11/21 09:16:33;;;;;;;5.25;0.70;;;;;;;16.23;35.67;101201.59;4426132;32;20092;-70
2021/11/21 09:18:58;;;;;;;1.98;0.40;;;;;;;16.68;34.99;101208.25;4426877;32;20072;-70
2021/11/21 09:21:24;;;;;;;7.22;1.10;;;;;;;16.82;34.35;101213.34;4418766;32;20077;-70
2021/11/21 09:23:50;;;;;;;5.95;0.80;;;;;;;17.09;34.05;101213.37;4419602;32;20025;-70
2021/11/21 09:26:16;;;;;;;3.85;0.50;;;;;;;17.12;33.68;101212.44;4426978;32;20545;-70
2021/11/21 09:28:43;;;;;;;3.90;0.50;;;;;;;17.45;33.17;101221.19;4424242;32;20018;-70
2021/11/21 09:31:09;;;;;;;2.25;0.40;;;;;;;17.85;33.00;101222.56;4424469;32;20156;-70
2021/11/21 09:33:35;;;;;;;5.12;0.82;;;;;;;17.31;33.19;101231.09;4422724;32;20360;-70
2021/11/21 09:36:03;;;;;;;1.67;0.60;;;;;;;17.88;32.32;101235.84;4420895;32;20038;-70
2021/11/21 09:38:29;;;;;;;3.75;0.80;;;;;;;17.99;32.15;101234.56;4423950;32;20057;-70
2021/11/21 09:40:55;;;;;;;2.40;0.43;;;;;;;17.14;32.92;101226.19;4424427;32;20065;-70
2021/11/21 09:43:21;;;;;;;2.78;0.57;;;;;;;17.43;32.51;101220.88;4423464;32;20064;-70
2021/11/21 09:45:48;;;;;;;5.25;0.82;;;;;;;17.57;32.69;101225.91;4423007;32;20098;-70
2021/11/21 09:48:15;;;;;;;4.03;0.55;;;;;;;17.60;32.39;101224.97;4426540;32;20052;-70
2021/11/21 09:50:42;;;;;;;8.35;0.60;;;;;;;17.43;32.46;101232.25;4415015;32;20038;-70
2021/11/21 09:53:11;;;;;;;1.73;0.40;;;;;;;17.06;32.62;101242.75;4426462;32;20476;-70
2021/11/21 09:55:37;;;;;;;4.50;0.82;;;;;;;17.60;32.46;101259.12;4426548;32;20419;-70
2021/11/21 09:58:04;;;;;;;8.25;1.02;;;;;;;16.97;32.98;101244.81;4425285;32;20045;-70
2021/11/21 10:00:32;;;;;;;5.55;0.70;;;;;;;17.50;32.28;101244.13;4422296;32;20041;-70
2021/11/21 10:05:37;;;;;;;2.90;0.68;;;;;;;17.97;31.55;101260.69;3953228;32;15776605;-71
2021/11/21 10:08:13;;;;;;;3.67;0.45;;;;;;;17.97;31.55;101260.69;4434601;32;20029;-69
2021/11/21 10:13:35;;;;;;;5.18;0.77;;;;;;;18.97;29.94;101261.13;3980642;32;15021910;-70
2021/11/21 10:19:08;;;;;;;10.18;0.90;;;;;;;18.93;29.84;101281.28;3984234;32;15023102;-71
2021/11/21 10:21:36;;;;;;;3.87;0.43;;;;;;;18.93;29.84;101281.28;4437267;32;20130;-71
2021/11/21 10:26:44;;;;;;;4.85;0.70;;;;;;;18.75;29.75;101281.34;3982737;32;15022066;-71
2021/11/21 10:29:29;;;;;;;3.22;0.40;;;;;;;18.75;29.75;101281.34;4433788;32;20095;-71
2021/11/21 10:31:57;;;;;;;3.47;0.43;;;;;;;18.88;29.41;101289.72;4436629;32;20076;-71
2021/11/21 10:34:23;;;;;;;4.25;0.73;;;;;;;18.73;29.58;101278.22;4436905;32;20853;-71
2021/11/21 10:36:49;;;;;;;2.90;0.55;;;;;;;19.27;28.58;101283.63;4439958;32;20157;-71
2021/11/21 10:39:16;;;;;;;5.20;0.40;;;;;;;19.62;28.43;101281.81;4435869;32;20120;-71
2021/11/21 10:41:45;;;;;;;3.83;0.60;;;;;;;19.65;28.13;101285.75;4433612;32;20069;-71
2021/11/21 10:44:16;;;;;;;5.68;0.60;;;;;;;19.52;28.49;101288.06;4437784;32;20096;-71
2021/11/21 10:49:25;;;;;;;6.25;0.80;;;;;;;19.51;28.53;101286.47;3955301;32;15723623;-71
2021/11/21 10:54:52;;;;;;;2.22;0.52;;;;;;;20.30;27.71;101298.97;3984367;32;15033826;-71
2021/11/21 11:00:04;;;;;;;3.35;0.50;;;;;;;20.10;27.67;101298.84;4006246;31;15018180;-71
2021/11/21 11:02:32;;;;;;;3.17;0.80;;;;;;;20.10;27.67;101298.84;4461845;32;20055;-71
2021/11/21 11:05:09;;;;;;;3.58;0.60;;;;;;;19.37;28.28;101310.06;4464402;32;20028;-71
2021/11/21 11:10:13;;;;;;;2.75;0.50;;;;;;;20.22;27.37;101312.84;3985609;32;15024009;-71
2021/11/21 11:12:42;;;;;;;3.83;0.45;;;;;;;20.22;27.37;101312.84;4438456;32;20390;-71
2021/11/21 11:15:08;;;;;;;2.95;0.50;;;;;;;19.97;27.51;101304.81;4433881;32;20037;-71
2021/11/21 11:17:35;;;;;;;3.65;0.60;;;;;;;20.57;26.64;101313.78;4434046;32;20528;-72
2021/11/21 11:20:04;;;;;;;2.87;0.43;;;;;;;21.13;25.69;101307.69;4429629;32;20128;-72
2021/11/21 11:22:30;;;;;;;4.68;0.65;;;;;;;21.49;25.52;101310.03;4430504;32;21305;-71
2021/11/21 11:25:00;;;;;;;2.42;0.50;;;;;;;21.18;25.35;101301.25;4432423;32;20022;-71
2021/11/21 11:30:29;;;;;;;3.08;0.70;;;;;;;20.69;26.46;101309.81;3984461;32;15022669;-71
2021/11/21 11:33:13;;;;;;;4.37;0.88;;;;;;;20.69;26.46;101309.81;4441767;32;20045;-71
2021/11/21 11:35:43;;;;;;;3.47;0.50;;;;;;;19.83;27.40;101303.50;4440485;32;20037;-71
2021/11/21 11:40:50;;;;;;;5.57;0.80;;;;;;;20.28;27.03;101313.75;3976189;32;15028956;-71
2021/11/21 11:45:56;;;;;;;3.95;0.80;;;;;;;20.86;26.34;101321.53;3955999;32;15722365;-71
2021/11/21 11:57:02;;;;;;;3.22;0.50;;;;;;;20.77;26.28;101310.19;3987159;32;15023018;-71
2021/11/21 12:02:28;;;;;;;3.60;0.65;;;;;;;20.14;26.71;101313.75;3983049;32;15040807;-71